createdAt,value
2019-01-22T00:02:14.630Z,-1.93
2019-01-22T00:04:45.284Z,-1.92
2019-01-22T00:07:16.303Z,-1.89
2019-01-22T00:09:46.893Z,-1.87
2019-01-22T00:12:17.546Z,-1.88
2019-01-22T00:14:47.925Z,-1.94
2019-01-22T00:17:18.785Z,-1.89
2019-01-22T00:19:49.504Z,-1.93
2019-01-22T00:22:19.956Z,-1.88
2019-01-22T00:24:50.405Z,-1.90
2019-01-22T00:27:20.865Z,-1.93
2019-01-22T00:29:51.319Z,-1.92
2019-01-22T00:32:21.740Z,-1.95
2019-01-22T00:34:52.195Z,-1.97
2019-01-22T00:37:22.723Z,-1.99
2019-01-22T00:39:53.207Z,-1.96
2019-01-22T00:42:23.654Z,-2.00
2019-01-22T00:44:54.481Z,-2.02
2019-01-22T00:47:24.928Z,-2.02
2019-01-22T00:49:55.382Z,-2.02
2019-01-22T00:52:26.143Z,-2.05
2019-01-22T00:54:56.553Z,-2.11
2019-01-22T00:57:27.029Z,-2.11
2019-01-22T00:59:57.501Z,-2.12
2019-01-22T01:02:28.540Z,-2.17
2019-01-22T01:04:59.183Z,-2.23
2019-01-22T01:07:29.587Z,-2.19
2019-01-22T01:10:00.099Z,-2.21
2019-01-22T01:12:30.622Z,-2.25
2019-01-22T01:15:01.738Z,-2.27
2019-01-22T01:17:32.240Z,-2.28
2019-01-22T01:20:03.236Z,-2.33
2019-01-22T01:22:33.699Z,-2.34
2019-01-22T01:25:05.076Z,-2.35
2019-01-22T01:27:35.530Z,-2.35
2019-01-22T01:30:09.887Z,-2.39
2019-01-22T01:32:40.399Z,-2.38
2019-01-22T01:35:11.278Z,-2.40
2019-01-22T01:37:42.310Z,-2.40
2019-01-22T01:40:15.907Z,-2.41
2019-01-22T01:42:46.949Z,-2.38
2019-01-22T01:45:18.734Z,-2.45
2019-01-22T01:47:49.195Z,-2.38
2019-01-22T01:50:20.268Z,-2.44
2019-01-22T01:52:50.675Z,-2.47
2019-01-22T01:55:21.382Z,-2.46
2019-01-22T01:57:51.855Z,-2.51
2019-01-22T02:00:23.908Z,-2.44
2019-01-22T02:02:54.421Z,-2.45
2019-01-22T02:05:25.166Z,-2.51
2019-01-22T02:07:55.611Z,-2.48
2019-01-22T02:10:27.639Z,-2.47
2019-01-22T02:13:17.688Z,-2.47
2019-01-22T02:16:29.503Z,-2.49
2019-01-22T02:19:29.914Z,-2.55
2019-01-22T02:22:36.119Z,-2.58
2019-01-22T02:25:32.090Z,-2.54
2019-01-22T02:28:59.625Z,-2.54
2019-01-22T02:32:27.813Z,-2.56
2019-01-22T02:35:40.716Z,-2.62
2019-01-22T02:39:06.542Z,-2.65
2019-01-22T02:41:49.459Z,-2.67
2019-01-22T02:45:01.662Z,-2.77
2019-01-22T02:47:45.736Z,-2.72
2019-01-22T02:51:25.065Z,-2.79
2019-01-22T02:54:21.782Z,-2.82
2019-01-22T02:57:26.291Z,-2.83
2019-01-22T03:01:12.771Z,-2.88
2019-01-22T03:05:06.229Z,-2.84
2019-01-22T03:08:29.255Z,-2.83
2019-01-22T03:11:31.051Z,-2.88
2019-01-22T03:15:03.073Z,-2.85
2019-01-22T03:18:16.378Z,-2.89
2019-01-22T03:21:15.821Z,-2.89
2019-01-22T03:24:27.036Z,-2.89
2019-01-22T03:27:47.162Z,-2.87
2019-01-22T03:31:29.733Z,-2.87
2019-01-22T03:34:26.765Z,-2.91
2019-01-22T03:37:51.144Z,-2.95
2019-01-22T03:40:58.732Z,-2.97
2019-01-22T03:44:21.092Z,-3.04
2019-01-22T03:47:49.782Z,-3.05
2019-01-22T03:50:53.335Z,-3.00
2019-01-22T03:53:58.743Z,-3.03
2019-01-22T03:56:59.107Z,-3.05
2019-01-22T03:59:29.575Z,-3.04
2019-01-22T04:02:00.009Z,-3.07
2019-01-22T04:04:30.841Z,-3.11
2019-01-22T04:07:02.337Z,-3.13
2019-01-22T04:09:45.066Z,-3.13
2019-01-22T04:12:15.572Z,-3.16
2019-01-22T04:14:46.042Z,-3.19
2019-01-22T04:17:16.498Z,-3.18
2019-01-22T04:19:46.997Z,-3.20
2019-01-22T04:22:37.572Z,-3.16
2019-01-22T04:25:42.766Z,-3.18
2019-01-22T04:29:19.142Z,-3.25
2019-01-22T04:32:21.046Z,-3.26
2019-01-22T04:35:34.248Z,-3.30
2019-01-22T04:38:31.511Z,-3.25
2019-01-22T04:42:02.300Z,-3.30
2019-01-22T04:45:32.864Z,-3.24
2019-01-22T04:48:55.936Z,-3.32
2019-01-22T04:51:46.668Z,-3.24
2019-01-22T04:55:02.224Z,-3.23
2019-01-22T04:58:21.992Z,-3.22
2019-01-22T05:01:58.394Z,-3.21
2019-01-22T05:05:08.717Z,-3.22
2019-01-22T05:08:31.301Z,-3.23
2019-01-22T05:11:29.051Z,-3.15
2019-01-22T05:14:32.349Z,-3.16
2019-01-22T05:17:16.579Z,-3.12
2019-01-22T05:20:12.066Z,-3.10
2019-01-22T05:23:57.164Z,-3.13
2019-01-22T05:27:26.692Z,-3.09
2019-01-22T05:30:51.038Z,-3.11
2019-01-22T05:34:33.131Z,-3.02
2019-01-22T05:38:12.593Z,-2.94
2019-01-22T05:42:00.930Z,-2.96
2019-01-22T05:45:28.030Z,-2.90
2019-01-22T05:48:58.077Z,-2.90
2019-01-22T05:52:05.861Z,-2.91
2019-01-22T05:55:02.684Z,-2.88
2019-01-22T05:58:10.338Z,-2.87
2019-01-22T06:01:28.294Z,-2.90
2019-01-22T06:04:33.963Z,-2.90
2019-01-22T06:07:47.459Z,-2.87
2019-01-22T06:11:06.238Z,-2.88
2019-01-22T06:14:38.749Z,-2.87
2019-01-22T06:17:31.855Z,-2.81
2019-01-22T06:20:48.037Z,-2.84
2019-01-22T06:24:22.801Z,-2.77
2019-01-22T06:27:05.216Z,-2.75
2019-01-22T06:30:53.288Z,-2.77
2019-01-22T06:34:30.992Z,-2.69
2019-01-22T06:37:16.077Z,-2.72
2019-01-22T06:40:16.953Z,-2.70
2019-01-22T06:43:43.005Z,-2.69
2019-01-22T06:46:24.386Z,-2.66
2019-01-22T06:49:04.935Z,-2.64
2019-01-22T06:52:15.923Z,-2.65
2019-01-22T06:55:31.738Z,-2.63
2019-01-22T06:58:50.711Z,-2.63
2019-01-22T07:02:16.125Z,-2.63
2019-01-22T07:05:23.072Z,-2.65
2019-01-22T07:09:10.433Z,-2.63
2019-01-22T07:12:30.154Z,-2.69
2019-01-22T07:16:08.508Z,-2.66
2019-01-22T07:19:29.184Z,-2.69
2019-01-22T07:23:00.545Z,-2.76
2019-01-22T07:26:21.230Z,-2.79
2019-01-22T07:29:59.354Z,-2.82
2019-01-22T07:33:08.976Z,-2.84
2019-01-22T07:35:58.394Z,-2.82
2019-01-22T07:38:57.035Z,-2.83
2019-01-22T07:42:17.257Z,-2.77
2019-01-22T07:45:09.523Z,-2.74
2019-01-22T07:48:03.348Z,-2.71
2019-01-22T07:51:06.530Z,-2.67
2019-01-22T07:54:20.392Z,-2.60
2019-01-22T07:57:48.451Z,-2.55
2019-01-22T08:01:09.670Z,-2.50
2019-01-22T08:05:03.265Z,-2.50
2019-01-22T08:08:24.317Z,-2.41
2019-01-22T08:11:45.498Z,-2.23
2019-01-22T08:14:49.311Z,-2.03
2019-01-22T08:18:19.406Z,-1.84
2019-01-22T08:21:45.556Z,-1.79
2019-01-22T08:25:13.023Z,-1.51
2019-01-22T08:28:21.554Z,-1.36
2019-01-22T08:31:34.441Z,-1.36
2019-01-22T08:34:59.325Z,-1.22
2019-01-22T08:38:43.104Z,-1.02
2019-01-22T08:42:19.788Z,-1.00
2019-01-22T08:45:36.340Z,-0.99
2019-01-22T08:48:52.944Z,-0.88
2019-01-22T08:51:49.744Z,-0.95
2019-01-22T08:55:07.843Z,-0.60
2019-01-22T08:58:17.336Z,-0.57
2019-01-22T09:01:18.479Z,-0.83
2019-01-22T09:04:26.077Z,-0.87
2019-01-22T09:07:55.133Z,-0.81
2019-01-22T09:11:22.328Z,-0.84
2019-01-22T09:14:57.292Z,-1.06
2019-01-22T09:18:05.727Z,-0.92
2019-01-22T09:20:53.427Z,-0.98
2019-01-22T09:24:06.655Z,-0.90
2019-01-22T09:27:37.308Z,-0.72
2019-01-22T09:30:50.038Z,-0.44
2019-01-22T09:34:20.959Z,-0.37
2019-01-22T09:37:10.805Z,-0.24
2019-01-22T09:39:41.243Z,-0.17
2019-01-22T09:42:11.682Z,0.04
2019-01-22T09:44:42.093Z,0.36
2019-01-22T09:47:12.610Z,-0.14
2019-01-22T09:49:43.231Z,0.01
2019-01-22T09:52:13.847Z,-0.13
2019-01-22T09:54:44.289Z,-0.38
2019-01-22T09:57:14.742Z,-0.20
2019-01-22T09:59:45.455Z,-0.30
2019-01-22T10:02:15.889Z,-0.38
2019-01-22T10:04:46.331Z,-0.47
2019-01-22T10:07:17.073Z,-0.37
2019-01-22T10:09:47.659Z,-0.36
2019-01-22T10:12:18.114Z,-0.33
2019-01-22T10:14:48.558Z,-0.02
2019-01-22T10:17:19.476Z,-0.02
2019-01-22T10:19:50.243Z,0.00
2019-01-22T10:22:20.711Z,-0.01
2019-01-22T10:24:51.401Z,-0.02
2019-01-22T10:27:21.794Z,0.08
2019-01-22T10:29:52.266Z,0.12
2019-01-22T10:32:22.620Z,0.15
2019-01-22T10:34:52.938Z,0.25
2019-01-22T10:37:23.363Z,0.15
2019-01-22T10:39:53.757Z,-0.08
2019-01-22T10:42:24.176Z,0.02
2019-01-22T10:44:54.901Z,0.15
2019-01-22T10:47:25.266Z,-0.08
2019-01-22T10:49:55.796Z,-0.20
2019-01-22T10:52:26.251Z,0.13
2019-01-22T10:54:56.715Z,0.05
2019-01-22T10:57:27.142Z,0.10
2019-01-22T10:59:57.611Z,0.52
2019-01-22T11:02:28.072Z,0.50
2019-01-22T11:04:58.552Z,0.19
2019-01-22T11:07:29.294Z,0.25
2019-01-22T11:09:59.973Z,0.31
2019-01-22T11:12:30.416Z,0.23
2019-01-22T11:15:01.319Z,0.37
2019-01-22T11:17:31.677Z,0.44
2019-01-22T11:20:02.542Z,0.35
2019-01-22T11:22:33.071Z,0.37
2019-01-22T11:25:04.000Z,0.40
2019-01-22T11:27:34.682Z,0.16
2019-01-22T11:30:08.347Z,0.22
2019-01-22T11:32:39.285Z,0.15
2019-01-22T11:35:11.629Z,0.17
2019-01-22T11:37:42.303Z,0.18
2019-01-22T11:40:20.986Z,0.23
2019-01-22T11:42:51.739Z,0.30
2019-01-22T11:45:26.947Z,0.56
2019-01-22T11:48:00.233Z,0.89
2019-01-22T11:50:30.963Z,0.78
2019-01-22T11:53:02.148Z,0.76
2019-01-22T11:55:32.752Z,1.08
2019-01-22T11:58:03.483Z,0.89
2019-01-22T12:00:41.019Z,1.27
2019-01-22T12:03:11.751Z,1.16
2019-01-22T12:05:42.389Z,0.79
2019-01-22T12:08:13.166Z,0.83
2019-01-22T12:10:44.249Z,0.75
2019-01-22T12:13:15.466Z,0.64
2019-01-22T12:15:46.053Z,1.00
2019-01-22T12:18:19.859Z,1.01
2019-01-22T12:20:51.690Z,0.89
2019-01-22T12:23:22.330Z,1.05
2019-01-22T12:25:57.256Z,1.11
2019-01-22T12:28:25.292Z,1.31
2019-01-22T12:30:55.927Z,0.96
2019-01-22T12:33:26.999Z,0.91
2019-01-22T12:35:57.627Z,0.72
2019-01-22T12:38:28.790Z,0.87
2019-01-22T12:40:59.816Z,0.79
2019-01-22T12:43:31.051Z,0.94
2019-01-22T12:46:02.063Z,1.19
2019-01-22T12:48:33.041Z,1.05
2019-01-22T12:51:03.725Z,1.13
2019-01-22T12:53:34.279Z,1.27
2019-01-22T12:56:04.996Z,1.09
2019-01-22T12:58:36.252Z,1.22
2019-01-22T13:01:07.155Z,1.24
2019-01-22T13:03:37.807Z,1.64
2019-01-22T13:06:08.669Z,1.80
2019-01-22T13:08:39.234Z,1.67
2019-01-22T13:11:10.083Z,1.52
2019-01-22T13:13:40.822Z,1.35
2019-01-22T13:16:11.541Z,1.39
2019-01-22T13:18:41.999Z,1.50
2019-01-22T13:21:12.442Z,1.47
2019-01-22T13:23:43.099Z,1.25
2019-01-22T13:26:13.527Z,0.93
2019-01-22T13:28:43.984Z,1.21
2019-01-22T13:31:14.402Z,1.38
2019-01-22T13:33:45.103Z,1.27
2019-01-22T13:36:15.548Z,1.04
2019-01-22T13:38:45.895Z,0.99
2019-01-22T13:41:16.959Z,0.77
2019-01-22T13:43:47.338Z,0.54
2019-01-22T13:46:18.017Z,0.57
2019-01-22T13:48:48.623Z,0.64
2019-01-22T13:51:19.082Z,0.68
2019-01-22T13:53:49.927Z,0.78
2019-01-22T13:56:20.286Z,0.57
2019-01-22T13:58:50.729Z,0.60
2019-01-22T14:01:21.157Z,0.49
2019-01-22T14:03:51.587Z,0.53
2019-01-22T14:06:22.316Z,0.61
2019-01-22T14:08:52.744Z,0.56
2019-01-22T14:11:23.171Z,0.56
2019-01-22T14:13:53.629Z,0.54
2019-01-22T14:16:24.069Z,0.61
2019-01-22T14:18:54.440Z,0.61
2019-01-22T14:21:24.702Z,0.64
2019-01-22T14:23:55.370Z,0.54
2019-01-22T14:26:25.765Z,0.60
2019-01-22T14:28:56.224Z,0.71
2019-01-22T14:31:26.639Z,0.73
2019-01-22T14:33:57.212Z,0.76
2019-01-22T14:36:27.919Z,0.71
2019-01-22T14:38:58.337Z,0.66
2019-01-22T14:41:28.788Z,0.62
2019-01-22T14:43:59.520Z,0.59
2019-01-22T14:46:29.866Z,0.55
2019-01-22T14:49:00.299Z,0.51
2019-01-22T14:51:30.751Z,0.56
2019-01-22T14:54:01.440Z,0.54
2019-01-22T14:56:32.615Z,0.48
2019-01-22T14:59:03.158Z,0.53
2019-01-22T15:01:33.583Z,0.49
2019-01-22T15:04:04.406Z,0.42
2019-01-22T15:06:34.779Z,0.47
2019-01-22T15:09:07.511Z,0.46
2019-01-22T15:11:38.243Z,0.41
2019-01-22T15:14:08.692Z,0.42
2019-01-22T15:16:39.122Z,0.45
2019-01-22T15:19:09.668Z,0.45
2019-01-22T15:21:40.673Z,0.40
2019-01-22T15:24:11.061Z,0.32
2019-01-22T15:26:41.782Z,0.40
2019-01-22T15:29:12.251Z,0.41
2019-01-22T15:31:42.718Z,0.41
2019-01-22T15:34:13.468Z,0.28
2019-01-22T15:36:43.935Z,0.23
2019-01-22T15:39:14.299Z,0.14
2019-01-22T15:41:44.760Z,0.07
2019-01-22T15:44:15.514Z,0.08
2019-01-22T15:46:45.977Z,0.15
2019-01-22T15:49:16.573Z,0.13
2019-01-22T15:51:47.084Z,0.14
2019-01-22T15:54:18.043Z,0.13
2019-01-22T15:56:48.518Z,0.08
2019-01-22T15:59:19.197Z,-0.06
2019-01-22T16:01:49.636Z,0.03
2019-01-22T16:04:20.320Z,0.03
2019-01-22T16:06:51.042Z,0.05
2019-01-22T16:09:21.833Z,0.02
2019-01-22T16:11:52.433Z,-0.11
2019-01-22T16:14:23.007Z,-0.13
2019-01-22T16:16:53.425Z,-0.20
2019-01-22T16:19:23.856Z,-0.22
2019-01-22T16:21:54.328Z,-0.19
2019-01-22T16:24:24.707Z,-0.24
2019-01-22T16:26:55.132Z,-0.31
2019-01-22T16:29:25.543Z,-0.36
2019-01-22T16:31:56.002Z,-0.36
2019-01-22T16:34:26.501Z,-0.35
2019-01-22T16:36:57.250Z,-0.42
2019-01-22T16:39:27.889Z,-0.47
2019-01-22T16:41:58.603Z,-0.56
2019-01-22T16:44:29.193Z,-0.57
2019-01-22T16:46:59.665Z,-0.61
2019-01-22T16:49:30.268Z,-0.62
2019-01-22T16:52:00.641Z,-0.65
2019-01-22T16:54:31.283Z,-0.59
2019-01-22T16:57:01.745Z,-0.64
2019-01-22T16:59:32.228Z,-0.69
2019-01-22T17:02:02.858Z,-0.70
2019-01-22T17:04:33.218Z,-0.67
2019-01-22T17:07:03.635Z,-0.72
2019-01-22T17:09:34.351Z,-0.73
2019-01-22T17:12:05.024Z,-0.69
2019-01-22T17:14:35.544Z,-0.69
2019-01-22T17:17:06.023Z,-0.75
2019-01-22T17:19:36.475Z,-0.74
2019-01-22T17:22:07.247Z,-0.74
2019-01-22T17:24:37.951Z,-0.77
2019-01-22T17:27:08.444Z,-0.79
2019-01-22T17:29:39.110Z,-0.72
2019-01-22T17:32:16.131Z,-0.81
2019-01-22T17:34:50.327Z,-0.82
2019-01-22T17:37:20.836Z,-0.87
2019-01-22T17:39:51.615Z,-0.91
2019-01-22T17:42:22.105Z,-0.89
2019-01-22T17:44:52.581Z,-0.87
2019-01-22T17:47:23.385Z,-0.87
2019-01-22T17:49:53.793Z,-0.86
2019-01-22T17:52:24.268Z,-0.91
2019-01-22T17:54:55.057Z,-0.88
2019-01-22T17:57:25.561Z,-0.85
2019-01-22T17:59:55.955Z,-0.87
2019-01-22T18:02:26.699Z,-1.01
2019-01-22T18:04:57.478Z,-1.02
2019-01-22T18:07:28.150Z,-1.03
2019-01-22T18:09:58.663Z,-0.96
2019-01-22T18:12:28.213Z,-0.96
2019-01-22T18:14:59.026Z,-1.07
2019-01-22T18:17:29.483Z,-1.09
2019-01-22T18:20:00.004Z,-1.09
2019-01-22T18:22:30.471Z,-1.11
2019-01-22T18:25:00.938Z,-1.11
2019-01-22T18:27:31.542Z,-1.10
2019-01-22T18:30:01.943Z,-1.22
2019-01-22T18:32:32.638Z,-1.15
2019-01-22T18:35:03.699Z,-1.20
2019-01-22T18:37:34.080Z,-1.29
2019-01-22T18:40:05.283Z,-1.17
2019-01-22T18:42:35.745Z,-1.29
2019-01-22T18:45:07.092Z,-1.17
2019-01-22T18:47:37.545Z,-1.22
2019-01-22T18:50:11.492Z,-1.30
2019-01-22T18:52:42.032Z,-1.29
2019-01-22T18:55:12.695Z,-1.29
2019-01-22T18:57:43.430Z,-1.23
2019-01-22T19:00:20.019Z,-1.24
2019-01-22T19:02:50.580Z,-1.23
2019-01-22T19:05:21.573Z,-1.20
2019-01-22T19:07:52.298Z,-1.20
2019-01-22T19:10:25.965Z,-1.27
2019-01-22T19:12:56.476Z,-1.32
2019-01-22T19:15:27.229Z,-1.32
2019-01-22T19:17:57.728Z,-1.41
2019-01-22T19:20:28.300Z,-1.36
2019-01-22T19:22:58.820Z,-1.37
2019-01-22T19:25:29.751Z,-1.44
2019-01-22T19:28:00.412Z,-1.41
2019-01-22T19:30:32.034Z,-1.38
2019-01-22T19:33:02.531Z,-1.40
2019-01-22T19:35:33.039Z,-1.48
2019-01-22T19:38:03.785Z,-1.47
2019-01-22T19:40:34.657Z,-1.44
2019-01-22T19:43:05.598Z,-1.50
2019-01-22T19:45:38.007Z,-1.48
2019-01-22T19:48:08.812Z,-1.46
2019-01-22T19:50:39.449Z,-1.46
2019-01-22T19:53:10.139Z,-1.41
2019-01-22T19:55:40.692Z,-1.44
2019-01-22T19:58:11.873Z,-1.49
2019-01-22T20:00:42.818Z,-1.45
2019-01-22T20:03:13.499Z,-1.42
2019-01-22T20:05:44.473Z,-1.50
2019-01-22T20:08:15.188Z,-1.41
2019-01-22T20:10:45.831Z,-1.42
2019-01-22T20:13:16.387Z,-1.40
2019-01-22T20:15:47.060Z,-1.40
2019-01-22T20:18:19.391Z,-1.44
2019-01-22T20:20:50.455Z,-1.48
2019-01-22T20:23:21.131Z,-1.41
2019-01-22T20:25:52.112Z,-1.41
2019-01-22T20:28:23.565Z,-1.34
2019-01-22T20:30:54.212Z,-1.37
2019-01-22T20:33:24.905Z,-1.34
2019-01-22T20:35:55.634Z,-1.37
2019-01-22T20:38:26.208Z,-1.32
2019-01-22T20:40:56.977Z,-1.31
2019-01-22T20:43:27.618Z,-1.35
2019-01-22T20:45:58.283Z,-1.37
2019-01-22T20:48:29.772Z,-1.43
2019-01-22T20:51:01.434Z,-1.43
2019-01-22T20:53:32.810Z,-1.48
2019-01-22T20:56:03.726Z,-1.43
2019-01-22T20:58:40.540Z,-1.40
2019-01-22T21:01:08.700Z,-1.42
2019-01-22T21:03:41.149Z,-1.47
2019-01-22T21:06:12.698Z,-1.50
2019-01-22T21:08:43.725Z,-1.54
2019-01-22T21:11:14.556Z,-1.50
2019-01-22T21:13:45.278Z,-1.48
2019-01-22T21:16:16.079Z,-1.50
2019-01-22T21:18:46.995Z,-1.55
2019-01-22T21:21:18.467Z,-1.53
2019-01-22T21:23:49.223Z,-1.48
2019-01-22T21:26:20.632Z,-1.49
2019-01-22T21:28:51.540Z,-1.52
2019-01-22T21:31:22.376Z,-1.48
2019-01-22T21:33:53.372Z,-1.53
2019-01-22T21:36:24.442Z,-1.50
2019-01-22T21:38:55.207Z,-1.45
2019-01-22T21:41:25.992Z,-1.49
2019-01-22T21:43:58.322Z,-1.44
2019-01-22T21:46:29.565Z,-1.47
2019-01-22T21:49:00.679Z,-1.42
2019-01-22T21:51:31.405Z,-1.40
2019-01-22T21:54:02.600Z,-1.40
2019-01-22T21:56:33.637Z,-1.37
2019-01-22T21:59:05.098Z,-1.42
2019-01-22T22:01:35.994Z,-1.42
2019-01-22T22:04:06.758Z,-1.40
2019-01-22T22:06:37.705Z,-1.41
2019-01-22T22:09:09.703Z,-1.38
2019-01-22T22:11:40.535Z,-1.37
2019-01-22T22:14:11.747Z,-1.35
2019-01-22T22:16:42.496Z,-1.32
2019-01-22T22:19:13.180Z,-1.35
2019-01-22T22:21:43.917Z,-1.36
2019-01-22T22:24:14.602Z,-1.38
2019-01-22T22:26:45.478Z,-1.31
2019-01-22T22:29:16.543Z,-1.35
2019-01-22T22:31:47.231Z,-1.31
2019-01-22T22:34:17.725Z,-1.30
2019-01-22T22:36:48.219Z,-1.27
2019-01-22T22:39:18.918Z,-1.30
2019-01-22T22:41:49.412Z,-1.27
2019-01-22T22:44:19.725Z,-1.32
2019-01-22T22:46:50.082Z,-1.34
2019-01-22T22:49:20.541Z,-1.34
2019-01-22T22:51:51.063Z,-1.32
2019-01-22T22:54:22.066Z,-1.28
2019-01-22T22:56:52.815Z,-1.27
2019-01-22T22:59:23.207Z,-1.28
2019-01-22T23:01:54.109Z,-1.29
2019-01-22T23:04:24.928Z,-1.23
2019-01-22T23:06:55.383Z,-1.22
2019-01-22T23:09:26.100Z,-1.28
2019-01-22T23:11:56.961Z,-1.30
2019-01-22T23:14:27.434Z,-1.22
2019-01-22T23:16:58.188Z,-1.25
2019-01-22T23:19:28.707Z,-1.27
2019-01-22T23:21:59.241Z,-1.25
2019-01-22T23:24:29.691Z,-1.16
2019-01-22T23:27:00.473Z,-1.13
2019-01-22T23:29:31.227Z,-1.10
2019-01-22T23:32:01.748Z,-1.13
2019-01-22T23:34:32.126Z,-1.18
2019-01-22T23:37:02.835Z,-1.10
2019-01-22T23:39:33.425Z,-1.13
2019-01-22T23:42:03.903Z,-1.06
2019-01-22T23:44:34.437Z,-1.05
2019-01-22T23:47:04.889Z,-1.07
2019-01-22T23:49:35.236Z,-1.11
2019-01-22T23:52:05.827Z,-1.10
2019-01-22T23:54:36.218Z,-1.12
2019-01-22T23:57:06.750Z,-1.14
2019-01-22T23:59:37.252Z,-1.15
